createdAt,value
2022-10-05T00:01:35.293Z,100.00
2022-10-05T00:04:25.897Z,100.00
2022-10-05T00:06:59.208Z,100.00
2022-10-05T00:09:25.787Z,100.00
2022-10-05T00:11:52.267Z,100.00
2022-10-05T00:14:34.989Z,100.00
2022-10-05T00:17:04.454Z,100.00
2022-10-05T00:19:39.012Z,100.00
2022-10-05T00:22:14.764Z,100.00
2022-10-05T00:24:41.322Z,100.00
2022-10-05T00:27:21.364Z,100.00
2022-10-05T00:29:50.440Z,100.00
2022-10-05T00:32:17.320Z,100.00
2022-10-05T00:34:45.145Z,100.00
2022-10-05T00:37:13.438Z,100.00
2022-10-05T00:39:41.073Z,100.00
2022-10-05T00:42:28.752Z,100.00
2022-10-05T00:45:05.746Z,100.00
2022-10-05T00:47:38.537Z,100.00
2022-10-05T00:50:13.759Z,100.00
2022-10-05T00:53:02.072Z,100.00
2022-10-05T00:55:47.385Z,100.00
2022-10-05T00:58:49.060Z,100.00
2022-10-05T01:01:24.239Z,100.00
2022-10-05T01:04:25.994Z,100.00
2022-10-05T01:07:22.382Z,100.00
2022-10-05T01:10:09.671Z,100.00
2022-10-05T01:12:54.131Z,100.00
2022-10-05T01:15:45.367Z,100.00
2022-10-05T01:18:14.562Z,100.00
2022-10-05T01:20:50.025Z,100.00
2022-10-05T01:23:32.870Z,100.00
2022-10-05T01:26:26.560Z,100.00
2022-10-05T01:29:10.382Z,100.00
2022-10-05T01:31:56.234Z,100.00
2022-10-05T01:34:31.499Z,100.00
2022-10-05T01:37:16.916Z,100.00
2022-10-05T01:39:45.965Z,100.00
2022-10-05T01:42:41.163Z,100.00
2022-10-05T01:45:52.860Z,100.00
2022-10-05T01:48:44.260Z,100.00
2022-10-05T01:51:22.243Z,100.00
2022-10-05T01:54:00.218Z,100.00
2022-10-05T01:56:45.447Z,100.00
2022-10-05T01:59:18.942Z,100.00
2022-10-05T02:01:55.603Z,100.00
2022-10-05T02:07:38.747Z,100.00
2022-10-05T02:10:08.749Z,100.00
2022-10-05T02:12:38.372Z,100.00
2022-10-05T02:15:19.633Z,100.00
2022-10-05T02:17:50.408Z,100.00
2022-10-05T02:20:25.326Z,100.00
2022-10-05T02:22:56.082Z,100.00
2022-10-05T02:25:28.839Z,100.00
2022-10-05T02:28:01.976Z,100.00
2022-10-05T02:30:31.508Z,100.00
2022-10-05T02:33:02.657Z,100.00
2022-10-05T02:35:29.107Z,100.00
2022-10-05T02:38:11.704Z,100.00
2022-10-05T02:40:50.035Z,100.00
2022-10-05T02:43:38.941Z,100.00
2022-10-05T02:46:33.688Z,100.00
2022-10-05T02:49:31.116Z,100.00
2022-10-05T02:52:10.914Z,100.00
2022-10-05T02:54:46.179Z,100.00
2022-10-05T02:57:28.326Z,100.00
2022-10-05T03:00:25.844Z,100.00
2022-10-05T03:03:08.764Z,100.00
2022-10-05T03:05:48.246Z,100.00
2022-10-05T03:08:20.359Z,100.00
2022-10-05T03:11:00.103Z,100.00
2022-10-05T03:13:34.256Z,100.00
2022-10-05T03:16:18.439Z,100.00
2022-10-05T03:19:12.907Z,100.00
2022-10-05T03:22:07.907Z,100.00
2022-10-05T03:24:56.300Z,100.00
2022-10-05T03:27:36.546Z,100.00
2022-10-05T03:30:15.284Z,100.00
2022-10-05T03:32:55.906Z,100.00
2022-10-05T03:35:31.655Z,100.00
2022-10-05T03:38:08.167Z,100.00
2022-10-05T03:40:54.350Z,100.00
2022-10-05T03:43:29.829Z,100.00
2022-10-05T03:46:12.594Z,100.00
2022-10-05T03:49:27.559Z,100.00
2022-10-05T03:52:02.566Z,100.00
2022-10-05T03:54:38.487Z,100.00
2022-10-05T03:57:14.400Z,100.00
2022-10-05T03:59:55.856Z,100.00
2022-10-05T04:02:49.310Z,100.00
2022-10-05T04:05:29.863Z,100.00
2022-10-05T04:08:06.280Z,100.00
2022-10-05T04:10:52.860Z,100.00
2022-10-05T04:13:30.165Z,100.00
2022-10-05T04:16:24.927Z,100.00
2022-10-05T04:19:01.233Z,100.00
2022-10-05T04:21:38.172Z,100.00
2022-10-05T04:24:30.964Z,100.00
2022-10-05T04:27:44.131Z,100.00
2022-10-05T04:30:17.600Z,100.00
2022-10-05T04:32:48.351Z,100.00
2022-10-05T04:35:17.523Z,100.00
2022-10-05T04:37:55.610Z,100.00
2022-10-05T04:40:55.022Z,100.00
2022-10-05T04:43:30.010Z,100.00
2022-10-05T04:46:10.688Z,100.00
2022-10-05T04:48:58.532Z,100.00
2022-10-05T04:52:02.780Z,100.00
2022-10-05T04:55:06.959Z,100.00
2022-10-05T04:57:45.535Z,100.00
2022-10-05T05:00:41.178Z,100.00
2022-10-05T05:03:20.818Z,100.00
2022-10-05T05:06:17.211Z,100.00
2022-10-05T05:09:15.143Z,100.00
2022-10-05T05:12:05.576Z,100.00
2022-10-05T05:15:04.418Z,100.00
2022-10-05T05:17:39.719Z,100.00
2022-10-05T05:20:49.479Z,100.00
2022-10-05T05:23:30.373Z,100.00
2022-10-05T05:26:16.871Z,100.00
2022-10-05T05:28:54.614Z,100.00
2022-10-05T05:31:46.593Z,100.00
2022-10-05T05:34:43.095Z,100.00
2022-10-05T05:37:15.486Z,100.00
2022-10-05T05:40:25.044Z,100.00
2022-10-05T05:43:03.223Z,100.00
2022-10-05T05:45:41.010Z,100.00
2022-10-05T05:48:15.285Z,100.00
2022-10-05T05:51:03.570Z,100.00
2022-10-05T05:53:36.787Z,100.00
2022-10-05T05:56:20.955Z,100.00
2022-10-05T05:58:59.524Z,100.00
2022-10-05T06:01:43.527Z,100.00
2022-10-05T06:04:18.440Z,100.00
2022-10-05T06:06:50.260Z,100.00
2022-10-05T06:09:25.969Z,100.00
2022-10-05T06:11:55.936Z,100.00
2022-10-05T06:14:29.139Z,100.00
2022-10-05T06:17:26.367Z,100.00
2022-10-05T06:20:02.448Z,100.00
2022-10-05T06:22:39.139Z,100.00
2022-10-05T06:25:34.035Z,100.00
2022-10-05T06:28:12.137Z,100.00
2022-10-05T06:30:53.251Z,100.00
2022-10-05T06:33:42.096Z,100.00
2022-10-05T06:36:32.810Z,100.00
2022-10-05T06:39:17.635Z,100.00
2022-10-05T06:42:14.737Z,100.00
2022-10-05T06:44:54.542Z,100.00
2022-10-05T06:47:42.346Z,100.00
2022-10-05T06:50:40.614Z,100.00
2022-10-05T06:53:57.028Z,100.00
2022-10-05T06:56:33.028Z,100.00
2022-10-05T06:59:21.112Z,100.00
2022-10-05T07:02:30.456Z,100.00
2022-10-05T07:05:10.769Z,99.87
2022-10-05T07:07:47.355Z,97.58
2022-10-05T07:10:41.536Z,95.01
2022-10-05T07:13:17.067Z,92.92
2022-10-05T07:16:06.015Z,92.69
2022-10-05T07:18:49.787Z,91.88
2022-10-05T07:21:51.602Z,87.76
2022-10-05T07:24:38.931Z,84.53
2022-10-05T07:27:14.586Z,82.81
2022-10-05T07:29:47.895Z,82.46
2022-10-05T07:32:39.752Z,82.87
2022-10-05T07:35:57.542Z,83.11
2022-10-05T07:38:32.992Z,83.85
2022-10-05T07:41:06.588Z,84.37
2022-10-05T07:44:02.003Z,83.80
2022-10-05T07:47:17.640Z,81.06
2022-10-05T07:49:52.557Z,80.73
2022-10-05T07:52:56.010Z,79.28
2022-10-05T07:55:32.222Z,81.15
2022-10-05T07:58:29.463Z,79.88
2022-10-05T08:01:19.120Z,82.66
2022-10-05T08:03:45.689Z,82.91
2022-10-05T08:06:38.124Z,82.38
2022-10-05T08:09:22.493Z,81.26
2022-10-05T08:11:52.273Z,82.29
2022-10-05T08:14:28.797Z,83.50
2022-10-05T08:16:59.750Z,80.27
2022-10-05T08:19:32.446Z,82.08
2022-10-05T08:22:05.076Z,82.60
2022-10-05T08:24:34.359Z,80.99
2022-10-05T08:27:20.512Z,82.57
2022-10-05T08:29:58.460Z,83.04
2022-10-05T08:32:30.500Z,82.92
2022-10-05T08:34:59.949Z,83.52
2022-10-05T08:37:35.498Z,83.16
2022-10-05T08:40:35.948Z,82.91
2022-10-05T08:43:41.549Z,82.82
2022-10-05T08:46:53.243Z,83.69
2022-10-05T08:49:22.863Z,82.95
2022-10-05T08:51:56.787Z,83.37
2022-10-05T08:54:38.279Z,83.22
2022-10-05T08:57:29.508Z,82.85
2022-10-05T09:00:12.659Z,83.20
2022-10-05T09:03:01.042Z,83.44
2022-10-05T09:06:02.704Z,84.03
2022-10-05T09:08:47.796Z,80.18
2022-10-05T09:11:35.974Z,81.36
2022-10-05T09:14:11.469Z,83.19
2022-10-05T09:16:46.920Z,82.67
2022-10-05T09:19:51.011Z,82.82
2022-10-05T09:22:38.887Z,83.76
2022-10-05T09:25:18.504Z,83.65
2022-10-05T09:28:01.893Z,82.18
2022-10-05T09:30:40.218Z,81.67
2022-10-05T09:37:06.904Z,80.99
2022-10-05T09:40:01.186Z,80.59
2022-10-05T09:43:01.684Z,80.82
2022-10-05T09:45:36.817Z,80.74
2022-10-05T09:48:37.754Z,80.28
2022-10-05T09:51:19.706Z,80.91
2022-10-05T09:53:52.163Z,80.87
2022-10-05T09:56:49.847Z,81.20
2022-10-05T09:59:46.265Z,81.36
2022-10-05T10:02:50.785Z,80.61
2022-10-05T10:05:47.458Z,80.20
2022-10-05T10:08:26.180Z,78.42
2022-10-05T10:11:29.585Z,78.68
2022-10-05T10:15:09.750Z,78.34
2022-10-05T10:18:06.325Z,79.10
2022-10-05T10:20:47.661Z,78.88
2022-10-05T10:23:38.499Z,78.34
2022-10-05T10:26:25.879Z,77.69
2022-10-05T10:29:19.717Z,75.35
2022-10-05T10:32:31.095Z,74.74
2022-10-05T10:35:00.556Z,74.66
2022-10-05T10:37:36.132Z,75.11
2022-10-05T10:40:20.276Z,75.64
2022-10-05T10:43:18.627Z,75.09
2022-10-05T10:45:56.673Z,74.17
2022-10-05T10:48:28.897Z,74.46
2022-10-05T10:50:58.251Z,75.66
2022-10-05T10:54:03.620Z,73.40
2022-10-05T10:56:45.107Z,72.22
2022-10-05T10:59:49.956Z,71.79
2022-10-05T11:02:49.859Z,72.39
2022-10-05T11:05:22.245Z,73.05
2022-10-05T11:08:13.529Z,72.03
2022-10-05T11:10:58.897Z,72.29
2022-10-05T11:13:52.569Z,71.38
2022-10-05T11:16:48.410Z,70.71
2022-10-05T11:19:35.138Z,69.86
2022-10-05T11:22:19.283Z,69.84
2022-10-05T11:24:50.158Z,69.97
2022-10-05T11:27:41.587Z,68.35
2022-10-05T11:30:52.232Z,68.90
2022-10-05T11:33:30.843Z,68.65
2022-10-05T11:36:16.204Z,69.30
2022-10-05T11:39:04.238Z,69.11
2022-10-05T11:41:51.807Z,68.64
2022-10-05T11:44:18.329Z,69.28
2022-10-05T11:46:47.576Z,69.14
2022-10-05T11:49:27.041Z,69.18
2022-10-05T11:52:12.969Z,68.22
2022-10-05T11:55:05.701Z,66.53
2022-10-05T11:57:37.806Z,67.72
2022-10-05T12:00:13.840Z,68.00
2022-10-05T12:02:59.825Z,67.79
2022-10-05T12:05:57.374Z,66.66
2022-10-05T12:09:03.623Z,68.18
2022-10-05T12:11:42.765Z,67.42
2022-10-05T12:14:48.793Z,68.36
2022-10-05T12:17:27.966Z,67.86
2022-10-05T12:20:13.180Z,68.78
2022-10-05T12:22:50.713Z,67.77
2022-10-05T12:25:33.670Z,66.20
2022-10-05T12:28:05.679Z,67.28
2022-10-05T12:30:47.698Z,67.64
2022-10-05T12:33:25.547Z,66.76
2022-10-05T12:36:12.052Z,67.72
2022-10-05T12:38:46.132Z,66.88
2022-10-05T12:41:38.456Z,67.08
2022-10-05T12:44:13.207Z,66.49
2022-10-05T12:46:48.927Z,67.47
2022-10-05T12:49:24.241Z,66.74
2022-10-05T12:51:57.911Z,66.43
2022-10-05T12:54:32.288Z,66.69
2022-10-05T12:57:06.154Z,66.62
2022-10-05T12:59:50.558Z,66.68
2022-10-05T13:02:29.219Z,65.76
2022-10-05T13:05:07.819Z,65.49
2022-10-05T13:07:38.586Z,66.68
2022-10-05T13:10:29.901Z,66.19
2022-10-05T13:13:34.259Z,66.05
2022-10-05T13:16:16.594Z,67.01
2022-10-05T13:19:14.410Z,66.52
2022-10-05T13:21:49.799Z,67.41
2022-10-05T13:24:26.656Z,67.61
2022-10-05T13:27:03.911Z,67.11
2022-10-05T13:29:54.494Z,67.22
2022-10-05T13:32:25.791Z,66.30
2022-10-05T13:35:01.250Z,66.71
2022-10-05T13:38:06.224Z,66.07
2022-10-05T13:40:58.084Z,65.67
2022-10-05T13:43:49.135Z,65.36
2022-10-05T13:46:34.627Z,65.79
2022-10-05T13:49:19.456Z,66.13
2022-10-05T13:52:01.399Z,66.13
2022-10-05T13:54:57.210Z,66.01
2022-10-05T13:57:51.599Z,65.77
2022-10-05T14:00:26.620Z,65.99
2022-10-05T14:02:56.806Z,66.28
2022-10-05T14:05:28.704Z,66.46
2022-10-05T14:08:04.854Z,67.12
2022-10-05T14:10:53.773Z,65.88
2022-10-05T14:13:44.197Z,66.23
2022-10-05T14:16:13.662Z,64.71
2022-10-05T14:19:09.033Z,64.73
2022-10-05T14:22:24.732Z,65.03
2022-10-05T14:25:13.765Z,66.52
2022-10-05T14:28:24.163Z,65.32
2022-10-05T14:31:15.097Z,65.39
2022-10-05T14:33:42.208Z,65.98
2022-10-05T14:36:21.261Z,66.04
2022-10-05T14:38:57.944Z,66.14
2022-10-05T14:41:27.339Z,65.62
2022-10-05T14:44:05.369Z,66.15
2022-10-05T14:46:34.513Z,66.08
2022-10-05T14:49:37.346Z,65.04
2022-10-05T14:52:32.511Z,65.22
2022-10-05T14:55:06.990Z,64.47
2022-10-05T14:57:39.947Z,63.91
2022-10-05T15:00:12.511Z,64.60
2022-10-05T15:03:18.662Z,65.54
2022-10-05T15:05:45.103Z,63.14
2022-10-05T15:08:11.503Z,64.95
2022-10-05T15:10:56.706Z,65.37
2022-10-05T15:13:32.743Z,65.21
2022-10-05T15:16:33.560Z,65.27
2022-10-05T15:19:16.070Z,64.91
2022-10-05T15:21:45.367Z,65.63
2022-10-05T15:24:19.783Z,65.87
2022-10-05T15:26:50.576Z,65.87
2022-10-05T15:29:52.219Z,63.99
2022-10-05T15:32:58.002Z,62.83
2022-10-05T15:35:48.033Z,63.99
2022-10-05T15:38:23.176Z,63.92
2022-10-05T15:41:46.043Z,64.79
2022-10-05T15:44:26.009Z,63.78
2022-10-05T15:46:56.432Z,63.18
2022-10-05T15:49:37.044Z,63.41
2022-10-05T15:52:19.534Z,63.80
2022-10-05T15:55:07.193Z,64.99
2022-10-05T15:57:56.171Z,63.93
2022-10-05T16:00:25.290Z,63.62
2022-10-05T16:03:29.390Z,63.60
2022-10-05T16:06:47.277Z,63.75
2022-10-05T16:09:13.668Z,64.12
2022-10-05T16:11:59.022Z,64.68
2022-10-05T16:14:30.643Z,64.02
2022-10-05T16:17:16.462Z,63.69
2022-10-05T16:20:17.158Z,64.29
2022-10-05T16:22:51.440Z,64.50
2022-10-05T16:25:29.024Z,65.08
2022-10-05T16:28:17.922Z,65.64
2022-10-05T16:30:53.312Z,64.61
2022-10-05T16:33:54.292Z,64.35
2022-10-05T16:36:22.518Z,65.74
2022-10-05T16:39:03.449Z,66.22
2022-10-05T16:41:42.692Z,65.40
2022-10-05T16:44:24.519Z,65.01
2022-10-05T16:47:04.034Z,65.33
2022-10-05T16:49:39.560Z,66.31
2022-10-05T16:52:13.747Z,66.42
2022-10-05T16:54:53.640Z,68.18
2022-10-05T16:57:24.999Z,69.39
2022-10-05T17:00:24.529Z,71.53
2022-10-05T17:03:04.837Z,72.26
2022-10-05T17:05:51.251Z,73.22
2022-10-05T17:08:51.823Z,73.69
2022-10-05T17:11:51.971Z,74.79
2022-10-05T17:14:36.906Z,76.19
2022-10-05T17:17:58.727Z,76.60
2022-10-05T17:20:46.403Z,77.96
2022-10-05T17:23:29.236Z,77.55
2022-10-05T17:26:04.332Z,79.30
2022-10-05T17:28:57.480Z,79.93
2022-10-05T17:31:27.825Z,80.14
2022-10-05T17:34:00.271Z,80.51
2022-10-05T17:36:57.809Z,79.51
2022-10-05T17:39:52.541Z,82.08
2022-10-05T17:42:34.310Z,82.09
2022-10-05T17:45:20.705Z,80.15
2022-10-05T17:48:03.288Z,82.89
2022-10-05T17:51:02.107Z,82.61
2022-10-05T17:54:05.396Z,84.37
2022-10-05T17:56:52.457Z,84.13
2022-10-05T17:59:46.274Z,84.80
2022-10-05T18:02:36.702Z,84.91
2022-10-05T18:05:04.204Z,84.16
2022-10-05T18:07:31.887Z,84.65
2022-10-05T18:10:00.378Z,86.04
2022-10-05T18:12:40.145Z,86.13
2022-10-05T18:15:06.564Z,85.87
2022-10-05T18:18:00.845Z,85.98
2022-10-05T18:20:32.351Z,87.21
2022-10-05T18:23:09.354Z,88.33
2022-10-05T18:25:52.851Z,88.33
2022-10-05T18:28:35.558Z,88.90
2022-10-05T18:31:21.344Z,89.71
2022-10-05T18:34:21.106Z,89.54
2022-10-05T18:37:15.658Z,89.84
2022-10-05T18:40:23.600Z,90.27
2022-10-05T18:43:19.578Z,90.32
2022-10-05T18:46:08.063Z,89.72
2022-10-05T18:48:46.792Z,90.36
2022-10-05T18:51:28.470Z,91.27
2022-10-05T18:54:28.384Z,91.50
2022-10-05T18:56:54.885Z,91.89
2022-10-05T18:59:47.825Z,91.51
2022-10-05T19:02:38.392Z,92.12
2022-10-05T19:05:23.641Z,91.10
2022-10-05T19:08:42.507Z,92.24
2022-10-05T19:11:23.144Z,92.53
2022-10-05T19:14:14.040Z,92.82
2022-10-05T19:16:54.649Z,92.82
2022-10-05T19:19:42.666Z,93.14
2022-10-05T19:22:17.882Z,93.12
2022-10-05T19:25:24.107Z,93.34
2022-10-05T19:28:28.026Z,93.82
2022-10-05T19:31:13.077Z,93.90
2022-10-05T19:34:09.032Z,94.60
2022-10-05T19:36:53.740Z,95.03
2022-10-05T19:39:59.281Z,95.94
2022-10-05T19:42:53.128Z,95.55
2022-10-05T19:45:28.327Z,94.46
2022-10-05T19:48:03.960Z,94.37
2022-10-05T19:50:33.565Z,94.59
2022-10-05T19:53:14.446Z,95.07
2022-10-05T19:55:47.556Z,96.00
2022-10-05T19:58:25.341Z,96.40
2022-10-05T20:00:55.314Z,97.32
2022-10-05T20:03:29.890Z,98.13
2022-10-05T20:06:01.454Z,97.51
2022-10-05T20:08:39.830Z,96.65
2022-10-05T20:11:35.133Z,96.81
2022-10-05T20:14:01.685Z,96.03
2022-10-05T20:16:49.448Z,95.76
2022-10-05T20:19:54.016Z,96.49
2022-10-05T20:22:27.488Z,96.99
2022-10-05T20:24:56.712Z,98.19
2022-10-05T20:27:55.206Z,98.39
2022-10-05T20:30:27.385Z,98.58
2022-10-05T20:32:59.667Z,99.56
2022-10-05T20:35:30.536Z,97.67
2022-10-05T20:37:59.742Z,97.00
2022-10-05T20:40:30.243Z,96.78
2022-10-05T20:42:58.246Z,96.88
2022-10-05T20:45:25.191Z,97.87
2022-10-05T20:47:51.619Z,97.38
2022-10-05T20:50:18.366Z,97.55
2022-10-05T20:52:44.817Z,97.05
2022-10-05T20:55:12.564Z,96.96
2022-10-05T20:57:42.095Z,97.12
2022-10-05T21:00:10.353Z,96.67
2022-10-05T21:02:37.227Z,96.61
2022-10-05T21:05:04.674Z,96.13
2022-10-05T21:07:31.279Z,95.66
2022-10-05T21:09:57.755Z,97.28
2022-10-05T21:12:24.260Z,96.74
2022-10-05T21:14:52.592Z,97.93
2022-10-05T21:17:20.175Z,97.31
2022-10-05T21:19:47.417Z,96.96
2022-10-05T21:22:13.841Z,97.61
2022-10-05T21:24:41.023Z,98.89
2022-10-05T21:27:07.943Z,98.92
2022-10-05T21:29:36.422Z,96.83
2022-10-05T21:32:08.289Z,97.38
2022-10-05T21:34:35.103Z,97.57
2022-10-05T21:37:01.607Z,98.27
2022-10-05T21:39:28.173Z,98.08
2022-10-05T21:41:54.651Z,97.57
2022-10-05T21:44:21.086Z,98.39
2022-10-05T21:46:48.388Z,98.47
2022-10-05T21:49:19.505Z,97.96
2022-10-05T21:51:47.217Z,97.56
2022-10-05T21:54:21.041Z,97.69
2022-10-05T21:56:51.368Z,98.23
2022-10-05T21:59:21.588Z,99.36
2022-10-05T22:01:48.018Z,99.83
2022-10-05T22:04:15.089Z,99.51
2022-10-05T22:06:41.535Z,97.85
2022-10-05T22:09:08.035Z,98.60
2022-10-05T22:11:34.533Z,98.30
2022-10-05T22:14:03.848Z,97.32
2022-10-05T22:16:33.414Z,97.80
2022-10-05T22:19:05.084Z,97.82
2022-10-05T22:21:34.211Z,97.68
2022-10-05T22:24:02.400Z,97.03
2022-10-05T22:26:29.003Z,97.83
2022-10-05T22:28:56.792Z,97.89
2022-10-05T22:31:24.077Z,98.28
2022-10-05T22:33:51.272Z,99.16
2022-10-05T22:36:18.154Z,99.31
2022-10-05T22:38:46.552Z,99.70
2022-10-05T22:41:14.402Z,99.17
2022-10-05T22:43:40.812Z,99.85
2022-10-05T22:46:09.713Z,100.00
2022-10-05T22:48:36.531Z,99.21
2022-10-05T22:51:03.099Z,98.71
2022-10-05T22:53:29.580Z,100.00
2022-10-05T22:55:56.024Z,100.00
2022-10-05T22:58:22.497Z,99.59
2022-10-05T23:00:58.694Z,99.56
2022-10-05T23:03:25.415Z,99.37
2022-10-05T23:06:00.636Z,99.00
2022-10-05T23:08:27.653Z,99.05
2022-10-05T23:10:54.578Z,98.79
2022-10-05T23:13:22.390Z,98.56
2022-10-05T23:15:49.088Z,98.57
2022-10-05T23:18:16.682Z,98.37
2022-10-05T23:20:43.158Z,99.14
2022-10-05T23:23:09.679Z,98.92
2022-10-05T23:25:36.502Z,98.63
2022-10-05T23:28:03.079Z,98.38
2022-10-05T23:30:29.653Z,98.68
2022-10-05T23:32:56.106Z,99.21
2022-10-05T23:35:22.516Z,98.39
2022-10-05T23:37:48.940Z,98.23
2022-10-05T23:40:15.451Z,98.79
2022-10-05T23:42:42.491Z,98.41
2022-10-05T23:45:11.286Z,98.30
2022-10-05T23:47:38.752Z,98.67
2022-10-05T23:50:07.042Z,99.03
2022-10-05T23:52:34.718Z,99.09
2022-10-05T23:55:05.220Z,99.03
2022-10-05T23:57:31.969Z,99.70
2022-10-05T23:59:58.474Z,99.40
